• Join FlightAware (Why Join?)
  • Login
  • US Flag 
04:30PM EDT


 

Airport Tracker/Info


-or-


 

Live Flight TrackerFlight Track Log ✈ N1811Y ✈ 27-Oct-2013 ✈ KSRB - KTRI

Flight Track Log - Related Links

Times and Time Zones

All times are in EDT time to prevent confusion due to time zone crossing. See the N1811Y flight status page for this flight to view local times or setup timezone preferences in your user account.

Time Position Orientation Groundspeed Altitude Reporting Facility
EDT Latitude Longitude Course Direction KTS MPH feet Rate Location/Type
10:39AM 36.1042 -85.2800 80° East 164 189 5,700  Level Atlanta Center
10:40AM 36.1111 -85.2261 81° East 164 189 6,300 600 Climbing Atlanta Center
10:41AM 36.1178 -85.1747 81° East 164 189 6,900 480 Climbing Atlanta Center
10:42AM 36.1267 -85.1183 79° East 164 189 7,300 420 Climbing Atlanta Center
10:43AM 36.1085 -85.1578 80° East  Level FlightAware Approximate
10:43AM 36.1333 -85.0644 81° East 164 189 7,800  Level Atlanta Center
10:44AM 36.1422 -85.0056 79° East 164 189 8,300 420 Climbing Atlanta Center
10:45AM 36.1508 -84.9492 79° East 164 189 8,700 300 Climbing Atlanta Center
10:46AM 36.1575 -84.8925 82° East 164 189 8,900 120 Climbing Atlanta Center
10:47AM 36.1664 -84.8333 79° East 164 189 9,000  Climbing Atlanta Center
10:48AM 36.1731 -84.7692 83° East 169 194 9,000  Level Atlanta Center
10:49AM 36.1836 -84.7050 78° East 181 208 9,000  Level Atlanta Center
10:50AM 36.1925 -84.6381 81° East 181 208 9,000  Level Atlanta Center
10:51AM 36.1989 -84.5739 83° East 186 214 9,000  Level Atlanta Center
10:52AM 36.2075 -84.5069 81° East 186 214 9,000  Level Atlanta Center
10:53AM 36.2183 -84.4428 78° East 186 214 9,000  Level Atlanta Center
10:54AM 36.2267 -84.3758 81° East 186 214 9,000  Level Atlanta Center
10:55AM 36.2353 -84.3089 81° East 186 214 9,000  Level Atlanta Center
10:56AM 36.2436 -84.2447 81° East 186 214 9,000  Level Atlanta Center
10:58AM 36.2581 -84.1283 81° East  Level FlightAware Approximate
11:05AM 36.3114 -83.6914 81° East  Level FlightAware Approximate
11:06AM 36.3189 -83.6289 82° East  Level FlightAware Approximate
11:07AM 36.3264 -83.5664 82° East  Level FlightAware Approximate
11:08AM 36.3338 -83.5039 82° East  Level FlightAware Approximate
11:09AM 36.3412 -83.4414 82° East  Level FlightAware Approximate
11:10AM 36.3486 -83.3789 82° East  Level FlightAware Approximate
11:11AM 36.3566 -83.3164 81° East  Level FlightAware Approximate
11:12AM 36.3648 -83.2541 81° East  Level FlightAware Approximate
11:13AM 36.3730 -83.1917 81° East  Level FlightAware Approximate
11:14AM 36.3811 -83.1293 81° East  Level FlightAware Approximate
11:15AM 36.3892 -83.0669 81° East  Level FlightAware Approximate
11:16AM 36.3973 -83.0044 81° East  Level FlightAware Approximate
11:17AM 36.4042 -82.9418 83° East  Level FlightAware Approximate
11:18AM 36.4105 -82.8791 83° East  Level FlightAware Approximate
11:19AM 36.4168 -82.8163 83° East  Level FlightAware Approximate
11:20AM 36.4231 -82.7535 83° East  Level FlightAware Approximate
11:21AM 36.4293 -82.6908 83° East  Level FlightAware Approximate
11:22AM 36.4363 -82.6281 81° East  Level FlightAware Approximate
11:23AM 36.4446 -82.5657 81° East  Level FlightAware Approximate
11:24AM 36.4530 -82.5033 81° East  Level FlightAware Approximate
11:25AM 36.4613 -82.4409 81° East  Level FlightAware Approximate
11:26AM 36.4667 -82.4000 81° East  Level FlightAware Approximate
11:27AM 36.4752 -82.4074 81° East  Level Estimated
11:28AM 36.4752 -82.4074 81° East  Level Estimated
11:29AM 36.4752 -82.4074 81° East  Level Estimated
11:30AM 36.4752 -82.4074 81° East  Level Estimated
11:31AM 36.4752 -82.4074 81° East  Level Estimated
11:32AM 36.4752 -82.4074 81° East  Level Estimated
11:33AM 36.4752 -82.4074 81° East  Level Estimated
11:34AM 36.4752 -82.4074 81° East  Level Estimated
11:35AM 36.4752 -82.4074 81° East  Level Estimated
11:36AM 36.4752 -82.4074 81° East  Level Estimated
11:37AM 36.4752 -82.4074 81° East  Level Estimated
11:38AM 36.4752 -82.4074 81° East  Level Estimated
11:39AM 36.4752 -82.4074 81° East  Level Estimated
11:40AM 36.4752 -82.4074 81° East  Level Estimated
11:41AM 36.4752 -82.4074 81° East  Level Estimated
11:42AM 36.4752 -82.4074 81° East  Level Estimated
11:43AM 36.4752 -82.4074 81° East  Level Estimated